メインページ
METAR-TAF:

METAR-TAF

空港 :

Golden, ブリティッシュコロンビア州, カナダ

緯度: 51-18N, 経度: 116-59W, 海抜: 785m

現時点の気象観測

当レポートは1時間10分前の17:00(UTC)に作成
無風
気温 2°C
湿度 100%
気圧 1015 hPa
視程: 12.9km
高度200ftの雲はほとんどない
高度1200ftの雲は散在している
高度2200ftの曇り
小雨

METAR: CYGE 171700Z 00000KT 8SM -RA FEW002 SCT012 OVC022 02/02 A2996 RMK SC1SC2SC5 SLP176

時間: 11:10 (18:10 UTC)


TAF: 見つかりません

4,000以上の空港の気象観測と天気予報(METAR報とTAF報)

利用可能な観測所は地図上に黄色い丸と赤い丸で示す。

丸の上にカーソルを重ねると観測所名を参照できる。

次にクリックすると気象観測と天気予報を参照できる。

マップの切り替え:黒色「×」印の緑ボタンをクリックして拡大、「-」印の緑ボタンをクリックして縮小、緑色の三角印をクリックして隣りの地図に切り替え


METAR-TAF: